createdAt,value
2023-03-22T00:01:11.548Z,12.50
2023-03-22T00:03:38.941Z,11.10
2023-03-22T00:06:06.606Z,10.80
2023-03-22T00:08:33.647Z,11.70
2023-03-22T00:11:00.931Z,13.30
2023-03-22T00:13:27.761Z,11.50
2023-03-22T00:15:55.343Z,12.90
2023-03-22T00:18:22.072Z,11.60
2023-03-22T00:20:50.612Z,12.60
2023-03-22T00:23:17.605Z,11.90
2023-03-22T00:25:45.218Z,12.40
2023-03-22T00:28:13.178Z,13.40
2023-03-22T00:30:40.594Z,12.50
2023-03-22T00:33:08.746Z,11.90
2023-03-22T00:35:35.753Z,13.40
2023-03-22T00:38:13.590Z,12.60
2023-03-22T00:40:41.583Z,12.00
2023-03-22T00:43:08.368Z,13.10
2023-03-22T00:45:40.321Z,11.40
2023-03-22T00:48:11.501Z,12.70
2023-03-22T00:50:39.523Z,12.50
2023-03-22T00:53:06.843Z,11.30
2023-03-22T00:55:33.798Z,11.10
2023-03-22T00:58:01.217Z,11.80
2023-03-22T01:00:28.201Z,10.40
2023-03-22T01:02:59.234Z,12.70
2023-03-22T01:05:27.851Z,11.00
2023-03-22T01:07:55.200Z,11.90
2023-03-22T01:10:22.203Z,10.70
2023-03-22T01:12:49.361Z,13.90
2023-03-22T01:15:16.539Z,13.40
2023-03-22T01:17:43.309Z,13.90
2023-03-22T01:20:11.007Z,13.70
2023-03-22T01:22:38.421Z,13.40
2023-03-22T01:25:05.608Z,13.00
2023-03-22T01:27:32.821Z,12.40
2023-03-22T01:29:59.921Z,12.80
2023-03-22T01:32:26.676Z,13.30
2023-03-22T01:34:53.610Z,14.40
2023-03-22T01:37:21.545Z,13.70
2023-03-22T01:39:48.960Z,13.00
2023-03-22T01:42:16.456Z,11.90
2023-03-22T01:44:44.850Z,13.40
2023-03-22T01:47:14.291Z,13.60
2023-03-22T01:49:41.155Z,13.70
2023-03-22T01:52:14.188Z,12.30
2023-03-22T01:54:58.317Z,12.20
2023-03-22T01:57:45.632Z,12.50
2023-03-22T02:00:21.969Z,12.60
2023-03-22T02:03:21.913Z,11.60
2023-03-22T02:05:48.858Z,12.40
2023-03-22T02:08:16.570Z,18.70
2023-03-22T02:11:02.857Z,17.80
2023-03-22T02:13:47.340Z,15.80
2023-03-22T02:16:53.654Z,13.80
2023-03-22T02:19:41.725Z,12.60
2023-03-22T02:22:13.803Z,13.40
2023-03-22T02:25:18.442Z,13.30
2023-03-22T02:28:07.287Z,13.40
2023-03-22T02:30:49.263Z,11.90
2023-03-22T02:33:59.087Z,14.60
2023-03-22T02:37:03.878Z,14.30
2023-03-22T02:39:52.622Z,14.80
2023-03-22T02:42:19.307Z,12.90
2023-03-22T02:45:12.694Z,15.90
2023-03-22T02:48:15.536Z,15.20
2023-03-22T02:50:53.597Z,13.30
2023-03-22T02:53:22.990Z,12.80
2023-03-22T02:55:58.870Z,13.10
2023-03-22T02:58:45.125Z,13.60
2023-03-22T03:01:22.644Z,12.90
2023-03-22T03:03:52.655Z,13.80
2023-03-22T03:06:22.317Z,15.10
2023-03-22T03:08:51.011Z,16.90
2023-03-22T03:11:19.722Z,21.30
2023-03-22T03:13:48.638Z,21.40
2023-03-22T03:16:21.534Z,19.00
2023-03-22T03:19:14.320Z,17.70
2023-03-22T03:21:53.639Z,18.10
2023-03-22T03:24:25.748Z,19.60
2023-03-22T03:26:58.411Z,19.40
2023-03-22T03:29:52.179Z,21.50
2023-03-22T03:32:25.101Z,18.10
2023-03-22T03:35:09.156Z,16.80
2023-03-22T03:37:46.746Z,24.90
2023-03-22T03:40:23.792Z,32.40
2023-03-22T03:42:54.841Z,37.20
2023-03-22T03:45:24.368Z,26.40
2023-03-22T03:47:57.676Z,20.80
2023-03-22T03:50:26.559Z,18.20
2023-03-22T03:52:55.315Z,17.10
2023-03-22T03:55:23.429Z,21.10
2023-03-22T03:57:50.347Z,27.10
2023-03-22T04:00:17.496Z,23.40
2023-03-22T04:02:56.954Z,19.00
2023-03-22T04:05:37.594Z,17.00
2023-03-22T04:08:05.120Z,20.10
2023-03-22T04:10:32.896Z,19.20
2023-03-22T04:12:59.837Z,18.60
2023-03-22T04:15:26.728Z,18.90
2023-03-22T04:17:55.901Z,17.60
2023-03-22T04:20:25.825Z,17.20
2023-03-22T04:22:52.838Z,20.60
2023-03-22T04:25:22.357Z,20.80
2023-03-22T04:27:56.673Z,19.30
2023-03-22T04:30:24.294Z,17.00
2023-03-22T04:33:11.789Z,16.80
2023-03-22T04:35:58.941Z,15.70
2023-03-22T04:38:31.450Z,16.20
2023-03-22T04:40:58.337Z,16.10
2023-03-22T04:43:35.037Z,15.80
2023-03-22T04:46:12.324Z,15.30
2023-03-22T04:48:43.864Z,16.10
2023-03-22T04:51:11.299Z,14.30
2023-03-22T04:53:43.301Z,15.60
2023-03-22T04:56:13.633Z,15.30
2023-03-22T04:58:42.570Z,15.00
2023-03-22T05:01:10.911Z,15.30
2023-03-22T05:03:39.259Z,15.90
2023-03-22T05:06:08.291Z,15.30
2023-03-22T05:08:42.841Z,16.40
2023-03-22T05:11:14.096Z,15.40
2023-03-22T05:13:43.318Z,16.00
2023-03-22T05:16:10.714Z,16.00
2023-03-22T05:18:44.952Z,15.70
2023-03-22T05:21:22.030Z,16.50
2023-03-22T05:23:51.535Z,17.70
2023-03-22T05:26:19.888Z,16.80
2023-03-22T05:28:46.707Z,18.40
2023-03-22T05:31:22.290Z,18.20
2023-03-22T05:33:59.675Z,17.00
2023-03-22T05:36:29.225Z,17.30
2023-03-22T05:39:28.622Z,16.90
2023-03-22T05:41:56.121Z,16.60
2023-03-22T05:44:23.352Z,17.20
2023-03-22T05:47:02.351Z,17.90
2023-03-22T05:49:33.553Z,18.30
2023-03-22T05:52:03.812Z,20.50
2023-03-22T05:54:41.374Z,19.50
2023-03-22T05:57:08.320Z,18.00
2023-03-22T05:59:35.094Z,21.00
2023-03-22T06:02:02.232Z,19.20
2023-03-22T06:04:30.444Z,20.20
2023-03-22T06:07:03.302Z,18.70
2023-03-22T06:09:53.013Z,18.30
2023-03-22T06:12:25.327Z,17.70
2023-03-22T06:14:58.699Z,18.10
2023-03-22T06:17:37.988Z,20.10
2023-03-22T06:20:11.049Z,18.20
2023-03-22T06:22:39.079Z,16.80
2023-03-22T06:25:08.191Z,17.90
2023-03-22T06:27:39.134Z,16.80
2023-03-22T06:30:07.486Z,17.40
2023-03-22T06:32:41.322Z,16.90
2023-03-22T06:35:08.786Z,17.40
2023-03-22T06:37:35.610Z,17.20
2023-03-22T06:40:04.250Z,16.90
2023-03-22T06:42:31.505Z,17.00
2023-03-22T06:45:08.699Z,17.10
2023-03-22T06:47:38.131Z,17.80
2023-03-22T06:50:14.362Z,16.00
2023-03-22T06:53:10.592Z,16.70
2023-03-22T06:55:39.553Z,15.90
2023-03-22T06:58:20.161Z,15.00
2023-03-22T07:00:47.003Z,16.40
2023-03-22T07:03:14.548Z,15.50
2023-03-22T07:06:03.700Z,16.60
2023-03-22T07:08:32.448Z,17.10
2023-03-22T07:10:59.219Z,18.20
2023-03-22T07:13:26.844Z,17.70
2023-03-22T07:15:58.805Z,17.40
2023-03-22T07:18:35.449Z,16.40
2023-03-22T07:21:02.348Z,16.60
2023-03-22T07:23:29.860Z,16.60
2023-03-22T07:26:01.373Z,17.10
2023-03-22T07:28:31.797Z,15.10
2023-03-22T12:51:47.799Z,13.70
2023-03-22T12:54:19.202Z,12.70
2023-03-22T12:56:48.472Z,13.10
2023-03-22T12:59:22.152Z,12.90
2023-03-22T13:01:59.216Z,13.00
2023-03-22T13:04:49.731Z,14.00
2023-03-22T13:07:50.140Z,13.80
2023-03-22T13:10:34.221Z,13.80
2023-03-22T13:13:23.165Z,13.50
2023-03-22T13:16:03.268Z,14.10
2023-03-22T13:18:40.422Z,13.60
2023-03-22T13:21:16.699Z,12.10
2023-03-22T13:24:10.784Z,11.80
2023-03-22T13:29:34.421Z,13.40
2023-03-22T13:32:07.260Z,12.70
2023-03-22T13:34:48.688Z,13.00
2023-03-22T13:37:47.051Z,13.00
2023-03-22T13:40:23.184Z,12.30
2023-03-22T13:42:51.780Z,13.70
2023-03-22T13:45:33.750Z,13.20
2023-03-22T13:48:12.137Z,12.20
2023-03-22T13:50:40.807Z,11.20
2023-03-22T13:53:23.005Z,11.70
2023-03-22T13:55:52.001Z,12.70
2023-03-22T13:58:50.607Z,12.40
2023-03-22T14:01:29.867Z,13.60
2023-03-22T14:04:02.281Z,11.60
2023-03-22T14:06:43.631Z,11.80
2023-03-22T14:09:23.704Z,12.30
2023-03-22T14:12:04.448Z,12.00
2023-03-22T14:14:41.522Z,12.40
2023-03-22T14:17:29.968Z,14.90
2023-03-22T14:19:59.226Z,14.10
